createdAt,value
2023-03-02T00:01:44.888Z,7.75
2023-03-02T00:04:28.009Z,6.97
2023-03-02T00:07:08.014Z,8.10
2023-03-02T00:09:34.948Z,7.20
2023-03-02T00:12:01.612Z,9.95
2023-03-02T00:14:28.156Z,7.07
2023-03-02T00:16:54.703Z,9.93
2023-03-02T00:19:21.654Z,7.13
2023-03-02T00:21:48.245Z,10.98
2023-03-02T00:24:15.793Z,9.52
2023-03-02T00:26:42.568Z,8.65
2023-03-02T00:29:09.263Z,7.82
2023-03-02T00:31:35.913Z,14.85
2023-03-02T00:34:02.489Z,10.55
2023-03-02T00:36:29.066Z,8.23
2023-03-02T00:38:57.448Z,9.07
2023-03-02T00:41:24.120Z,9.02
2023-03-02T00:43:50.902Z,9.10
2023-03-02T00:46:20.179Z,9.73
2023-03-02T00:48:46.856Z,10.55
2023-03-02T00:51:13.956Z,11.02
2023-03-02T00:53:40.515Z,9.18
2023-03-02T00:56:08.161Z,11.18
2023-03-02T00:58:37.791Z,10.32
2023-03-02T01:01:09.866Z,9.20
2023-03-02T01:03:39.063Z,8.77
2023-03-02T01:06:06.180Z,9.40
2023-03-02T01:08:32.796Z,9.15
2023-03-02T01:11:01.513Z,9.25
2023-03-02T01:13:28.682Z,8.27
2023-03-02T01:16:02.973Z,10.35
2023-03-02T01:18:29.899Z,8.38
2023-03-02T01:21:07.722Z,12.02
2023-03-02T01:23:34.679Z,11.20
2023-03-02T01:26:01.343Z,12.13
2023-03-02T01:28:28.194Z,13.38
2023-03-02T01:30:54.786Z,15.68
2023-03-02T01:33:21.771Z,15.13
2023-03-02T01:35:48.855Z,12.68
2023-03-02T01:38:16.001Z,11.57
2023-03-02T01:40:43.740Z,12.50
2023-03-02T01:43:14.485Z,10.90
2023-03-02T01:45:45.758Z,10.18
2023-03-02T01:48:17.201Z,13.57
2023-03-02T01:50:45.305Z,14.30
2023-03-02T01:53:13.526Z,13.45
2023-03-02T01:55:40.478Z,12.73
2023-03-02T01:58:07.581Z,13.98
2023-03-02T02:00:37.598Z,13.43
2023-03-02T02:03:21.156Z,13.35
2023-03-02T02:06:06.614Z,13.25
2023-03-02T02:08:33.887Z,11.60
2023-03-02T02:11:00.933Z,16.35
2023-03-02T02:13:27.830Z,11.30
2023-03-02T02:15:54.463Z,11.40
2023-03-02T02:18:21.062Z,11.40
2023-03-02T02:20:49.258Z,12.63
2023-03-02T02:23:27.372Z,11.98
2023-03-02T02:25:55.381Z,11.77
2023-03-02T02:28:26.507Z,12.82
2023-03-02T02:31:07.697Z,10.23
2023-03-02T02:33:35.445Z,11.00
2023-03-02T02:36:06.641Z,12.50
2023-03-02T02:38:34.885Z,11.38
2023-03-02T02:41:03.900Z,12.43
2023-03-02T02:43:33.845Z,9.90
2023-03-02T02:46:00.916Z,12.05
2023-03-02T02:48:31.141Z,12.32
2023-03-02T02:51:02.944Z,11.70
2023-03-02T02:53:44.230Z,14.50
2023-03-02T02:56:11.682Z,13.82
2023-03-02T02:58:44.754Z,14.57
2023-03-02T03:01:16.047Z,15.60
2023-03-02T03:03:46.559Z,13.15
2023-03-02T03:06:18.231Z,11.68
2023-03-02T03:08:52.135Z,14.07
2023-03-02T03:11:30.591Z,14.57
2023-03-02T03:14:10.626Z,13.18
2023-03-02T03:16:38.901Z,14.95
2023-03-02T03:19:27.448Z,14.85
2023-03-02T03:21:56.535Z,14.57
2023-03-02T03:24:26.291Z,14.52
2023-03-02T03:26:56.428Z,14.27
2023-03-02T03:29:25.365Z,15.73
2023-03-02T03:31:55.653Z,11.90
2023-03-02T03:34:23.389Z,13.88
2023-03-02T03:36:50.101Z,14.55
2023-03-02T03:39:17.507Z,14.70
2023-03-02T03:41:44.623Z,15.23
2023-03-02T03:44:12.051Z,14.77
2023-03-02T03:46:41.174Z,12.68
2023-03-02T03:49:08.018Z,12.82
2023-03-02T03:51:35.578Z,14.90
2023-03-02T03:54:05.717Z,16.48
2023-03-02T03:56:40.184Z,13.73
2023-03-02T03:59:08.876Z,12.13
2023-03-02T04:01:44.088Z,17.85
2023-03-02T04:04:14.265Z,12.57
2023-03-02T04:06:41.020Z,14.77
2023-03-02T04:09:08.084Z,14.77
2023-03-02T04:11:38.756Z,15.40
2023-03-02T04:14:06.115Z,14.50
2023-03-02T04:16:33.514Z,14.82
2023-03-02T04:19:01.234Z,15.15
2023-03-02T04:21:28.334Z,16.42
2023-03-02T04:23:55.760Z,16.80
2023-03-02T04:26:23.204Z,14.13
2023-03-02T04:28:51.012Z,15.52
2023-03-02T04:31:18.624Z,14.10
2023-03-02T04:33:45.385Z,14.52
2023-03-02T04:36:12.530Z,19.02
2023-03-02T04:38:39.102Z,17.83
2023-03-02T04:41:05.935Z,17.00
2023-03-02T04:43:32.579Z,17.73
2023-03-02T04:45:59.257Z,16.33
2023-03-02T04:48:26.091Z,16.88
2023-03-02T04:50:52.678Z,19.30
2023-03-02T04:53:19.288Z,17.65
2023-03-02T04:55:45.902Z,14.07
2023-03-02T04:58:12.481Z,14.00
2023-03-02T05:00:39.134Z,17.90
2023-03-02T05:03:06.366Z,16.38
2023-03-02T05:05:33.331Z,18.17
2023-03-02T05:08:00.156Z,19.63
2023-03-02T05:10:27.863Z,18.73
2023-03-02T05:13:05.212Z,14.57
2023-03-02T05:15:35.105Z,16.75
2023-03-02T05:18:02.240Z,18.35
2023-03-02T05:20:30.432Z,16.40
2023-03-02T05:23:00.688Z,18.92
2023-03-02T05:25:28.772Z,17.10
2023-03-02T05:27:55.751Z,17.35
2023-03-02T05:30:22.687Z,24.27
2023-03-02T05:32:53.010Z,19.80
2023-03-02T05:35:21.337Z,17.85
2023-03-02T05:37:48.018Z,18.02
2023-03-02T05:40:18.871Z,16.52
2023-03-02T05:42:45.824Z,25.38
2023-03-02T05:45:22.948Z,17.48
2023-03-02T05:47:49.723Z,16.90
2023-03-02T05:50:16.803Z,16.98
2023-03-02T05:52:45.428Z,17.85
2023-03-02T05:55:13.834Z,16.73
2023-03-02T05:57:40.773Z,16.23
2023-03-02T06:00:10.221Z,18.13
2023-03-02T06:02:40.115Z,19.67
2023-03-02T06:05:10.999Z,19.85
2023-03-02T06:07:37.570Z,16.55
2023-03-02T06:10:05.859Z,20.50
2023-03-02T06:12:32.539Z,23.40
2023-03-02T06:14:59.534Z,24.05
2023-03-02T06:17:26.573Z,20.05
2023-03-02T06:19:53.167Z,19.33
2023-03-02T06:22:19.751Z,19.00
2023-03-02T06:24:46.392Z,21.13
2023-03-02T06:27:13.642Z,19.08
2023-03-02T06:29:40.293Z,21.90
2023-03-02T06:32:07.281Z,19.02
2023-03-02T06:34:35.475Z,21.92
2023-03-02T06:37:02.424Z,20.35
2023-03-02T06:39:30.190Z,19.20
2023-03-02T06:41:56.774Z,21.17
2023-03-02T06:44:23.387Z,18.55
2023-03-02T06:46:49.965Z,19.48
2023-03-02T06:49:16.554Z,21.80
2023-03-02T06:51:43.207Z,19.42
2023-03-02T06:54:09.850Z,20.80
2023-03-02T06:56:36.435Z,19.40
2023-03-02T06:59:03.079Z,23.73
2023-03-02T07:01:35.773Z,22.27
2023-03-02T07:04:03.231Z,21.85
2023-03-02T07:06:29.854Z,25.40
2023-03-02T07:08:56.405Z,22.98
2023-03-02T07:11:23.034Z,22.63
2023-03-02T07:13:49.815Z,26.67
2023-03-02T07:16:16.423Z,26.20
2023-03-02T07:18:43.140Z,25.80
2023-03-02T07:21:09.719Z,27.85
2023-03-02T07:23:36.309Z,36.47
2023-03-02T07:26:02.909Z,34.40
2023-03-02T07:28:29.510Z,35.33
2023-03-02T07:30:56.126Z,37.55
2023-03-02T07:33:22.770Z,36.60
2023-03-02T07:35:49.368Z,38.80
2023-03-02T07:38:16.008Z,38.78
2023-03-02T07:40:43.216Z,35.50
2023-03-02T07:43:10.160Z,34.88
2023-03-02T07:45:37.605Z,39.55
2023-03-02T07:48:04.241Z,32.53
2023-03-02T07:50:31.267Z,36.95
2023-03-02T07:52:59.891Z,33.70
2023-03-02T07:55:26.593Z,34.03
2023-03-02T07:57:53.246Z,34.78
2023-03-02T08:00:20.620Z,35.05
2023-03-02T08:02:47.208Z,36.83
2023-03-02T08:05:14.129Z,33.03
2023-03-02T08:07:41.027Z,39.45
2023-03-02T08:10:07.820Z,31.08
2023-03-02T08:12:34.384Z,35.40
2023-03-02T08:15:03.092Z,36.55
2023-03-02T08:17:30.211Z,53.50
2023-03-02T08:19:56.752Z,37.40
2023-03-02T08:22:23.546Z,40.10
2023-03-02T08:24:50.184Z,45.15
2023-03-02T08:27:17.750Z,42.25
2023-03-02T08:29:44.304Z,36.13
2023-03-02T08:32:10.996Z,38.53
2023-03-02T08:34:37.654Z,41.38
2023-03-02T08:37:04.309Z,39.47
2023-03-02T08:39:32.189Z,37.83
2023-03-02T08:41:59.061Z,36.08
2023-03-02T08:44:25.722Z,39.63
2023-03-02T08:46:52.283Z,39.63
2023-03-02T08:49:19.535Z,34.83
2023-03-02T08:51:46.772Z,39.90
2023-03-02T08:54:13.457Z,45.60
2023-03-02T08:56:40.397Z,35.90
2023-03-02T08:59:09.886Z,39.42
2023-03-02T09:01:37.976Z,36.92
2023-03-02T09:04:07.253Z,37.03
2023-03-02T09:06:36.739Z,39.20
2023-03-02T09:09:04.270Z,39.20
2023-03-02T09:11:31.097Z,36.53
2023-03-02T09:13:57.909Z,33.30
2023-03-02T09:16:26.096Z,37.67
2023-03-02T09:18:53.920Z,36.75
2023-03-02T09:21:20.880Z,38.20
2023-03-02T09:23:47.485Z,38.78
2023-03-02T09:26:14.152Z,41.53
2023-03-02T09:28:40.799Z,40.58
2023-03-02T09:31:08.526Z,40.67
2023-03-02T09:33:35.529Z,40.63
2023-03-02T09:36:07.176Z,38.33
2023-03-02T09:38:33.788Z,40.42
2023-03-02T09:41:19.985Z,39.60
2023-03-02T09:44:01.359Z,36.92
2023-03-02T09:46:39.692Z,39.97
2023-03-02T09:49:37.136Z,38.05
2023-03-02T09:52:13.998Z,36.53
2023-03-02T09:54:40.903Z,36.78
2023-03-02T09:57:27.193Z,36.33
2023-03-02T10:00:18.053Z,33.70
2023-03-02T10:02:51.721Z,37.08
2023-03-02T10:05:31.868Z,31.73
2023-03-02T10:07:59.497Z,34.45
2023-03-02T10:11:03.248Z,33.67
2023-03-02T10:13:34.763Z,35.92
2023-03-02T10:16:12.425Z,30.02
2023-03-02T10:18:47.181Z,36.33
2023-03-02T10:21:49.649Z,34.85
2023-03-02T10:25:02.950Z,32.17
2023-03-02T10:27:42.449Z,33.40
2023-03-02T10:30:31.127Z,34.72
2023-03-02T10:33:01.258Z,32.47
2023-03-02T10:35:29.107Z,33.30
2023-03-02T10:38:00.342Z,37.50
2023-03-02T10:40:46.086Z,36.72
2023-03-02T10:43:34.188Z,35.92
2023-03-02T10:46:03.123Z,33.67
2023-03-02T10:48:29.736Z,35.92
2023-03-02T10:50:58.569Z,39.38
2023-03-02T10:53:25.414Z,41.35
2023-03-02T10:55:53.309Z,38.25
2023-03-02T10:58:31.975Z,39.35
2023-03-02T11:01:07.379Z,38.50
2023-03-02T11:03:34.285Z,38.60
2023-03-02T11:06:17.467Z,37.47
2023-03-02T11:08:44.130Z,38.03
2023-03-02T11:11:37.734Z,37.60
2023-03-02T11:14:16.291Z,40.17
2023-03-02T11:16:43.621Z,37.33
2023-03-02T11:19:16.502Z,38.35
2023-03-02T11:21:56.476Z,36.97
2023-03-02T11:25:01.697Z,35.00
2023-03-02T11:27:31.232Z,32.08
2023-03-02T11:30:12.057Z,29.38
2023-03-02T11:32:50.004Z,30.33
2023-03-02T11:35:22.846Z,30.95
2023-03-02T11:37:55.253Z,26.52
2023-03-02T11:40:32.184Z,26.50
2023-03-02T11:43:00.459Z,26.73
2023-03-02T11:45:31.673Z,27.15
2023-03-02T11:48:04.176Z,26.25
2023-03-02T11:50:33.150Z,27.52
2023-03-02T11:53:01.991Z,26.83
2023-03-02T11:55:34.153Z,25.13
2023-03-02T11:58:03.423Z,26.10
2023-03-02T12:00:42.205Z,25.77
2023-03-02T12:03:14.725Z,24.27
2023-03-02T12:05:45.887Z,25.55
2023-03-02T12:08:15.542Z,25.27
2023-03-02T12:10:44.332Z,24.58
2023-03-02T12:13:17.861Z,22.13
2023-03-02T12:15:50.864Z,23.58
2023-03-02T12:18:23.514Z,25.27
2023-03-02T12:21:16.051Z,23.60
2023-03-02T12:23:45.525Z,22.35
2023-03-02T12:26:21.248Z,22.67
2023-03-02T12:29:10.888Z,23.05
2023-03-02T12:31:46.251Z,20.63
2023-03-02T12:34:33.797Z,21.27
2023-03-02T12:37:11.881Z,21.63
2023-03-02T12:40:03.448Z,19.98
2023-03-02T12:43:07.258Z,21.10
2023-03-02T12:45:46.374Z,20.70
2023-03-02T12:48:25.281Z,19.30
2023-03-02T12:50:52.851Z,20.27
2023-03-02T12:53:20.010Z,18.80
2023-03-02T12:55:46.950Z,20.05
2023-03-02T12:58:33.649Z,19.00
2023-03-02T13:01:02.296Z,17.50
2023-03-02T13:03:30.976Z,17.95
2023-03-02T13:06:03.468Z,17.45
2023-03-02T13:08:31.589Z,19.25
2023-03-02T13:11:00.866Z,21.25
2023-03-02T13:13:41.595Z,17.73
2023-03-02T13:16:28.809Z,19.48
2023-03-02T13:18:58.270Z,18.33
2023-03-02T13:21:32.767Z,18.67
2023-03-02T13:23:59.641Z,19.45
2023-03-02T13:26:37.127Z,17.60
2023-03-02T13:29:14.716Z,16.60
2023-03-02T13:31:41.387Z,20.40
2023-03-02T13:34:20.786Z,17.63
2023-03-02T13:36:47.364Z,16.38
2023-03-02T13:39:22.527Z,18.83
2023-03-02T13:41:54.425Z,17.08
2023-03-02T13:44:26.282Z,17.58
2023-03-02T13:46:52.909Z,17.38
2023-03-02T13:49:30.506Z,17.35
2023-03-02T13:52:02.303Z,17.77
2023-03-02T13:54:31.181Z,18.30
2023-03-02T13:56:59.262Z,18.27
2023-03-02T13:59:26.054Z,16.10
2023-03-02T14:01:52.678Z,21.58
2023-03-02T14:04:24.033Z,16.80
2023-03-02T14:06:52.129Z,17.15
2023-03-02T14:09:19.232Z,19.60
2023-03-02T14:11:48.276Z,18.38
2023-03-02T14:14:17.894Z,19.50
2023-03-02T14:16:44.565Z,17.48
2023-03-02T14:19:13.933Z,19.85
2023-03-02T14:21:41.202Z,16.80
2023-03-02T14:24:07.794Z,21.92
2023-03-02T14:26:45.219Z,18.50
2023-03-02T14:29:31.607Z,20.23
2023-03-02T14:32:00.706Z,18.45
2023-03-02T14:34:27.682Z,19.58
2023-03-02T14:36:58.625Z,19.10
2023-03-02T14:39:36.441Z,21.15
2023-03-02T14:42:04.175Z,20.63
2023-03-02T14:44:30.794Z,18.08
2023-03-02T14:46:58.284Z,20.55
2023-03-02T14:49:25.416Z,17.98
2023-03-02T14:51:59.336Z,20.63
2023-03-02T14:54:26.447Z,18.77
2023-03-02T14:56:53.134Z,19.33
2023-03-02T14:59:19.733Z,17.67
2023-03-02T15:01:46.487Z,18.98
2023-03-02T15:04:13.216Z,19.88
2023-03-02T15:06:41.058Z,17.67
2023-03-02T15:09:08.533Z,16.88
2023-03-02T15:11:35.516Z,18.33
2023-03-02T15:14:02.408Z,16.80
2023-03-02T15:16:29.062Z,15.75
2023-03-02T15:18:57.751Z,16.15
2023-03-02T15:21:25.216Z,14.15
2023-03-02T15:23:52.006Z,15.57
2023-03-02T15:26:18.659Z,17.50
2023-03-02T15:28:48.086Z,16.42
2023-03-02T15:31:16.352Z,16.20
2023-03-02T15:33:45.246Z,14.55
2023-03-02T15:36:12.781Z,16.52
2023-03-02T15:38:39.729Z,15.43
2023-03-02T15:41:13.163Z,16.98
2023-03-02T15:43:40.069Z,15.02
2023-03-02T15:46:06.731Z,17.50
2023-03-02T15:48:33.278Z,16.75
2023-03-02T15:51:04.837Z,17.40
2023-03-02T15:53:34.658Z,16.33
2023-03-02T15:56:10.879Z,14.77
2023-03-02T15:58:37.469Z,18.38
2023-03-02T16:01:08.479Z,17.73
2023-03-02T16:03:35.189Z,16.75
2023-03-02T16:06:02.023Z,16.52
2023-03-02T16:08:28.627Z,16.92
2023-03-02T16:10:59.744Z,17.98
2023-03-02T16:13:26.957Z,16.92
2023-03-02T16:15:53.857Z,18.85
2023-03-02T16:18:20.430Z,20.70
2023-03-02T16:20:47.023Z,19.20
2023-03-02T16:23:13.733Z,21.35
2023-03-02T16:25:43.526Z,17.55
2023-03-02T16:28:11.661Z,18.67
2023-03-02T16:30:39.525Z,17.52
2023-03-02T16:33:07.967Z,17.33
2023-03-02T16:35:35.275Z,19.48
2023-03-02T16:38:02.162Z,20.00
2023-03-02T16:40:29.387Z,16.67
2023-03-02T16:42:55.949Z,19.08
2023-03-02T16:45:22.687Z,20.20
2023-03-02T16:47:49.827Z,18.23
2023-03-02T16:50:17.100Z,18.85
2023-03-02T16:52:44.271Z,19.35
2023-03-02T16:55:17.292Z,21.35
2023-03-02T16:57:43.862Z,19.20
2023-03-02T17:00:13.363Z,19.40
2023-03-02T17:02:40.051Z,20.67
2023-03-02T17:05:06.854Z,20.10
2023-03-02T17:07:33.415Z,21.42
2023-03-02T17:09:59.976Z,23.13
2023-03-02T17:12:26.573Z,22.50
2023-03-02T17:14:53.141Z,22.88
2023-03-02T17:17:19.793Z,22.25
2023-03-02T17:19:46.336Z,25.48
2023-03-02T17:22:12.996Z,24.98
2023-03-02T17:24:39.655Z,25.88
2023-03-02T17:27:15.901Z,24.02
2023-03-02T17:29:49.275Z,25.52
2023-03-02T17:32:15.925Z,23.65
2023-03-02T17:34:43.385Z,25.23
2023-03-02T17:37:09.977Z,25.13
2023-03-02T17:39:36.627Z,22.77
2023-03-02T17:42:03.290Z,27.55
2023-03-02T17:44:29.858Z,23.70
2023-03-02T17:46:56.536Z,22.83
2023-03-02T17:49:23.094Z,22.00
2023-03-02T17:51:49.828Z,22.95
2023-03-02T17:54:16.389Z,23.67
2023-03-02T17:56:42.994Z,24.42
2023-03-02T17:59:10.456Z,21.95
2023-03-02T18:01:37.032Z,21.95
2023-03-02T18:04:03.761Z,22.10
2023-03-02T18:06:30.345Z,23.92
2023-03-02T18:08:57.010Z,21.90
2023-03-02T18:11:24.756Z,24.55
2023-03-02T18:13:54.883Z,22.65
2023-03-02T18:16:23.093Z,24.25
2023-03-02T18:18:53.479Z,25.67
2023-03-02T18:21:21.121Z,25.35
2023-03-02T18:23:47.754Z,29.02
2023-03-02T18:26:14.977Z,26.05
2023-03-02T18:28:41.691Z,28.35
2023-03-02T18:31:08.740Z,28.40
2023-03-02T18:33:37.450Z,28.35
2023-03-02T18:36:05.599Z,25.30
2023-03-02T18:38:33.650Z,23.30
2023-03-02T18:41:03.023Z,24.40
2023-03-02T18:43:34.783Z,24.73
2023-03-02T18:46:05.355Z,23.83
2023-03-02T18:48:32.571Z,24.48
2023-03-02T18:50:59.402Z,24.75
2023-03-02T18:53:27.023Z,27.52
2023-03-02T18:55:56.698Z,50.60
2023-03-02T18:58:25.367Z,43.38
2023-03-02T19:00:53.710Z,67.65
2023-03-02T19:03:20.988Z,30.52
2023-03-02T19:05:47.587Z,30.95
2023-03-02T19:08:14.232Z,29.55
2023-03-02T19:10:42.417Z,27.15
2023-03-02T19:13:11.629Z,23.58
2023-03-02T19:15:41.537Z,22.92
2023-03-02T19:18:08.402Z,23.83
2023-03-02T19:20:35.296Z,25.65
2023-03-02T19:23:01.955Z,23.33
2023-03-02T19:25:28.685Z,26.95
2023-03-02T19:27:55.261Z,23.80
2023-03-02T19:30:24.645Z,22.25
2023-03-02T19:32:54.037Z,22.60
2023-03-02T19:35:22.814Z,23.70
2023-03-02T19:37:49.850Z,24.75
2023-03-02T19:40:19.220Z,21.73
2023-03-02T19:42:47.487Z,23.20
2023-03-02T19:45:23.576Z,19.80
2023-03-02T19:47:50.125Z,19.77
2023-03-02T19:50:19.005Z,20.65
2023-03-02T19:52:45.615Z,20.45
2023-03-02T19:55:14.100Z,21.13
2023-03-02T19:57:40.898Z,21.20
2023-03-02T20:00:13.301Z,19.98
2023-03-02T20:02:40.847Z,19.02
2023-03-02T20:05:11.073Z,21.52
2023-03-02T20:10:35.950Z,21.30
2023-03-02T20:13:03.554Z,22.00
2023-03-02T20:15:32.049Z,23.35
2023-03-02T20:17:59.528Z,20.98
2023-03-02T20:20:27.169Z,20.88
2023-03-02T20:22:54.789Z,21.77
2023-03-02T20:25:21.770Z,21.65
2023-03-02T20:27:49.385Z,20.98
2023-03-02T20:30:39.411Z,22.83
2023-03-02T20:33:07.245Z,24.10
2023-03-02T20:35:35.106Z,21.98
2023-03-02T20:38:05.497Z,24.00
2023-03-02T20:40:32.483Z,22.88
2023-03-02T20:42:59.168Z,22.70
2023-03-02T20:45:25.787Z,20.67
2023-03-02T20:51:37.181Z,18.95
2023-03-02T20:54:04.358Z,18.13
2023-03-02T20:56:30.999Z,18.05
2023-03-02T20:58:58.012Z,19.23
2023-03-02T21:01:24.979Z,15.15
2023-03-02T21:03:51.721Z,19.13
2023-03-02T21:06:18.978Z,19.60
2023-03-02T21:08:46.124Z,22.10
2023-03-02T21:11:15.813Z,16.23
2023-03-02T21:13:45.889Z,19.00
2023-03-02T21:16:17.128Z,17.67
2023-03-02T21:18:57.992Z,19.58
2023-03-02T21:21:40.392Z,18.38
2023-03-02T21:24:09.208Z,18.83
2023-03-02T21:26:36.677Z,17.05
2023-03-02T21:29:05.290Z,17.20
2023-03-02T21:31:31.991Z,19.90
2023-03-02T21:34:00.203Z,19.55
2023-03-02T21:36:27.139Z,18.02
2023-03-02T21:38:53.874Z,18.10
2023-03-02T21:41:20.499Z,18.35
2023-03-02T21:43:47.829Z,16.00
2023-03-02T21:46:16.750Z,16.60
2023-03-02T21:48:43.898Z,14.95
2023-03-02T21:51:11.866Z,13.88
2023-03-02T21:53:38.423Z,14.35
2023-03-02T21:56:05.681Z,14.43
2023-03-02T21:58:32.373Z,14.43
2023-03-02T22:00:59.094Z,14.20
2023-03-02T22:03:25.864Z,15.57
2023-03-02T22:05:52.464Z,13.13
2023-03-02T22:08:20.469Z,14.93
2023-03-02T22:10:51.136Z,16.35
2023-03-02T22:13:26.818Z,11.43
2023-03-02T22:16:15.511Z,12.27
2023-03-02T22:18:44.661Z,14.07
2023-03-02T22:21:28.656Z,14.43
2023-03-02T22:24:09.885Z,13.20
2023-03-02T22:26:40.719Z,12.95
2023-03-02T22:29:21.469Z,20.33
2023-03-02T22:31:49.582Z,14.30
2023-03-02T22:34:24.261Z,14.75
2023-03-02T22:36:50.918Z,16.52
2023-03-02T22:39:29.400Z,14.73
2023-03-02T22:42:08.731Z,13.43
2023-03-02T22:44:37.329Z,14.13
2023-03-02T22:47:20.346Z,15.20
2023-03-02T22:49:56.132Z,13.48
2023-03-02T22:52:26.071Z,14.48
2023-03-02T22:54:55.183Z,15.63
2023-03-02T22:57:33.486Z,21.85
2023-03-02T23:00:32.663Z,16.25
2023-03-02T23:03:01.364Z,16.73
2023-03-02T23:05:33.930Z,17.40
2023-03-02T23:08:19.722Z,16.40
2023-03-02T23:10:49.283Z,16.30
2023-03-02T23:13:20.119Z,14.85
2023-03-02T23:15:48.985Z,14.35
2023-03-02T23:18:29.053Z,14.45
2023-03-02T23:20:58.409Z,17.55
2023-03-02T23:23:28.895Z,15.00
2023-03-02T23:25:59.079Z,19.38
2023-03-02T23:28:26.154Z,18.23
2023-03-02T23:30:54.674Z,15.32
2023-03-02T23:33:24.040Z,17.30
2023-03-02T23:35:53.753Z,16.90
2023-03-02T23:38:22.978Z,16.10
2023-03-02T23:40:52.323Z,15.82
2023-03-02T23:43:21.893Z,16.65
2023-03-02T23:45:51.549Z,19.17
2023-03-02T23:48:20.980Z,15.55
2023-03-02T23:50:52.166Z,15.23
2023-03-02T23:53:22.596Z,15.13
2023-03-02T23:55:53.382Z,14.98
2023-03-02T23:58:25.152Z,14.88
